Main page
METAR-TAF:

METAR-TAF

Airports :

Victoria, Mahé, Seychelles

Seychelles International Airport

latitude: 04-40S, longitude: 055-31E, elevation: 3 m

Current weather observation

The report was made 35 minutes ago, at 20:00 UTC
Wind 7 kt from the South/Southeast
Temperature 26°C
Humidity 89%
Pressure 1011 hPa
Visibility 10 km or more
Scattered clouds at a height of 1600 ft

METAR: FSIA 202000Z 15007KT 9999 SCT016 26/24 Q1011 NOSIG

Time: 00:35 (20:35 UTC)

Forecast

The report was made 3 hours and 35 minutes ago, at 17:00 UTC
Forecast valid from 20 at 18 UTC to 21 at 18 UTC
Wind 15 kt from the Southeast
Visibility 10 km or more
Scattered clouds at a height of 1600 ft
Temporary
from 20 at 18 UTC to 20 at 22 UTC
Broken clouds at a height of 1500 ft
light rain showers
Probability 40% :
Temporary
from 21 at 00 UTC to 21 at 12 UTC
Broken clouds at a height of 1600 ft
light rain showers

TAF: FSIA 201700Z 2018/2118 14015KT 9999 SCT016 TEMPO 2018/2022 -SHRA BKN015 PROB40 TEMPO 2100/2112 -SHRA BKN016

Weather observations and forecasts of more than 4000 airports (METAR and TAF reports).

The available stations are represented by yellow and red dots on the map.

Hover mouse over dot to see the name of the station.

Then click to see weather observations and forecasts.

To change the map : click on the green buttons with a black cross to zoom in, on the green button with a dash to zoom out, or on the green arrows for adjacent maps.


METAR-TAF: